Onde está Espiçandeira en Portugal?

 

Espiçandeira está situado na região Lisboa em Portugal!

Buscar o nome de uma cidade:

Espirig, Espi Zarak, Espino, Espinos de Carreón, Espidak

Aqui você vai encontrar a localização de Espiçandeira em um mapa.
Para ver como ele atualmente parece, abaixo estão algumas fotos da região, com webcams online.
Você também pode encontrar a distância para as principais cidades da região e de cidades do resto do Portugal.

Cidades do mundo
Cidades em Portugal que também são encontradas em outros países do mundo.


Onde está Espiçandeira no mapa?




Webcams perto Espiçandeira

Benavente › North-East: Santarém - AIrport, METAR: BENAV 180005Z 36004KT 17/14 Q1015.


Benavente › North-East: Santarém - AIrport, METAR: BENAV 180005Z 36004KT 17/14 Q1015 - Dia
Actual
Benavente › North-East: Santarém - AIrport, METAR: BENAV 180005Z 36004KT 17/14 Q1015 - Actual

Silveira › West.


Silveira › West - Dia
Actual
Silveira › West - Actual

Encarnacao: Praia da Calada - Lisbona - Praia _ da _ Calada.


Encarnacao: Praia da Calada - Lisbona - Praia _ da _ Calada - Dia
Actual
Encarnacao: Praia da Calada - Lisbona - Praia _ da _ Calada - Actual

Webcams provided by webcams.travel


Distâncias

Onde está Espiçandeira em relação a outros lugares?

Top 10 cidades em Lisboa e distância de Espiçandeira.

Cidade#Populaçãokmmilhas
Lisbon15177984025
Amadora21788563924
Queluz31033984025
Loures4662302918
Rio de Mouro5546954226
Odivelas6546233421
São Domingos de Rana7467174830
Cascais8364365333
Alcabideche9333155031
Póvoa de Santa Iria10289002415

Top 10 cidades em Portugal e distância de Espiçandeira.

Cidade # Populaçãokmmilhas
Lisbon15177984025
Porto2249630233145
Amadora31788563924
Braga4121393280174
Setúbal51171096138
Coimbra610658013785
Queluz71033984025
Funchal8980411006625
Vila Nova de Gaia970810232144
Loures10662302918



Info

Estatística e Geografia

Portugal é composta de 15299 cidades em 20 regiões.

A região de Lisboa tem 1032 cidades.

Espiçandeira é o número 459 na região Lisboa.

A cidade é o número 5435 na Portugal.

Onde está Espiçandeira en Portugal?